Time;durP1;ratioP1;P1;durP2;ratioP2;P2;SDS_P1;SDS_P2;PMS_P1;PMS_P2;Temp;Humidity;BMP_temperature;BMP_pressure;BME280_temperature;BME280_humidity;BME280_pressure;Samples;Min_cycle;Max_cycle;Signal;HPM_P1;HPM_P2
2023/10/10 00:01:00;;;;;;;1.10;1.10;;;;;;;11.45;nan;60663.38;5032935;28;20187;-64
2023/10/10 00:03:30;;;;;;;1.33;1.23;;;;;;;11.38;nan;60949.56;5032598;28;20175;-64
2023/10/10 00:05:57;;;;;;;1.13;1.08;;;;;;;11.39;nan;60891.88;5033005;28;20634;-63
2023/10/10 00:08:29;;;;;;;1.70;1.40;;;;;;;11.61;nan;60680.19;5032813;28;20207;-64
2023/10/10 00:10:55;;;;;;;1.50;1.40;;;;;;;11.47;nan;60818.47;5032646;28;20621;-63
2023/10/10 00:13:23;;;;;;;1.08;1.08;;;;;;;11.77;nan;60736.53;5032387;28;20699;-63
2023/10/10 00:16:05;;;;;;;0.90;0.90;;;;;;;11.64;nan;60683.56;5032603;28;20175;-62
2023/10/10 00:18:32;;;;;;;1.63;1.52;;;;;;;11.84;nan;60737.28;5032527;28;20731;-63
2023/10/10 00:21:06;;;;;;;1.08;1.08;;;;;;;8.70;nan;62034.06;5032300;28;20768;-63
2023/10/10 00:23:42;;;;;;;1.30;1.20;;;;;;;11.69;nan;60712.75;5032712;28;20175;-64
2023/10/10 00:26:12;;;;;;;1.88;1.63;;;;;;;11.62;nan;60683.88;5032534;28;20571;-64
2023/10/10 00:28:41;;;;;;;1.17;1.17;;;;;;;11.55;nan;60760.97;5032405;28;20187;-63
2023/10/10 00:31:10;;;;;;;1.05;1.05;;;;;;;11.52;nan;60642.50;5032390;28;20175;-63
2023/10/10 00:33:38;;;;;;;1.27;1.13;;;;;;;11.52;nan;60609.81;5032274;28;20270;-64
2023/10/10 00:36:21;;;;;;;1.40;1.30;;;;;;;11.75;nan;60683.69;5032073;28;20168;-63
2023/10/10 00:38:50;;;;;;;1.30;1.20;;;;;;;11.73;nan;60722.38;5031906;28;20553;-65
2023/10/10 00:41:16;;;;;;;2.78;1.00;;;;;;;11.78;nan;60696.72;5025202;28;20183;-64
2023/10/10 00:43:42;;;;;;;1.13;1.13;;;;;;;11.63;nan;60828.81;5012045;28;20176;-63
2023/10/10 00:46:11;;;;;;;1.58;1.48;;;;;;;11.59;nan;60706.09;5012144;28;20207;-63
2023/10/10 00:48:38;;;;;;;1.40;1.30;;;;;;;11.61;nan;60823.41;5011962;28;20199;-63
2023/10/10 00:51:10;;;;;;;1.40;1.30;;;;;;;11.76;nan;60702.72;5011911;28;20187;-63
2023/10/10 00:53:39;;;;;;;1.08;1.08;;;;;;;11.61;nan;60800.41;5011752;28;20238;-63
2023/10/10 00:56:05;;;;;;;0.93;0.90;;;;;;;11.76;nan;60720.06;5011575;28;20590;-63
2023/10/10 00:58:36;;;;;;;1.05;1.05;;;;;;;11.61;nan;60741.56;5011944;28;20219;-64
2023/10/10 01:01:12;;;;;;;1.70;1.60;;;;;;;11.74;nan;60797.16;5011948;28;20161;-63
2023/10/10 01:03:44;;;;;;;0.95;0.95;;;;;;;11.76;nan;60743.66;5011799;28;20221;-63
2023/10/10 01:06:14;;;;;;;1.00;1.00;;;;;;;11.97;nan;60702.72;5011516;28;20171;-63
2023/10/10 01:08:53;;;;;;;1.38;1.27;;;;;;;12.03;nan;60985.88;5011047;28;20235;-63
2023/10/10 01:11:19;;;;;;;3.05;1.30;;;;;;;11.82;nan;60742.16;5028352;28;20563;-63
2023/10/10 01:13:45;;;;;;;1.00;1.00;;;;;;;12.00;nan;60836.03;5012275;28;20246;-62
2023/10/10 01:16:11;;;;;;;1.65;1.55;;;;;;;11.88;nan;60659.34;5015907;28;20175;-62
2023/10/10 01:18:51;;;;;;;1.20;1.20;;;;;;;12.19;nan;60729.97;5031404;28;20267;-63
2023/10/10 01:21:28;;;;;;;1.20;1.10;;;;;;;12.16;nan;60761.88;5031455;28;20253;-64
2023/10/10 01:23:58;;;;;;;1.27;1.23;;;;;;;12.13;nan;60789.78;5031444;28;20168;-64
2023/10/10 01:26:28;;;;;;;1.08;1.08;;;;;;;12.14;nan;60729.47;5031327;28;20626;-62
2023/10/10 01:28:54;;;;;;;1.92;1.45;;;;;;;12.17;nan;60773.78;5031103;28;20206;-64
2023/10/10 01:31:19;;;;;;;1.20;1.10;;;;;;;11.94;nan;60763.31;5031183;28;20558;-64
2023/10/10 01:33:47;;;;;;;1.00;1.00;;;;;;;12.09;nan;60723.84;5031214;28;20175;-63
2023/10/10 01:36:16;;;;;;;1.05;1.05;;;;;;;11.81;nan;60748.72;5031234;28;20179;-63
2023/10/10 01:38:55;;;;;;;1.00;1.00;;;;;;;11.81;nan;60767.19;5031225;28;20634;-63
2023/10/10 01:41:31;;;;;;;1.30;1.20;;;;;;;11.95;nan;60729.16;5030925;28;20176;-63
2023/10/10 01:44:08;;;;;;;0.85;0.85;;;;;;;11.97;nan;60725.75;5031341;28;20251;-64
2023/10/10 01:46:36;;;;;;;1.38;1.27;;;;;;;11.71;nan;60665.81;5031389;28;20175;-64
2023/10/10 01:49:02;;;;;;;1.88;1.20;;;;;;;11.87;nan;60793.84;5030999;28;20207;-62
2023/10/10 01:51:42;;;;;;;1.85;1.75;;;;;;;11.97;nan;60732.84;5031217;28;20164;-63
2023/10/10 01:54:18;;;;;;;1.52;1.42;;;;;;;11.91;nan;60704.22;5031170;28;20271;-63
2023/10/10 01:56:45;;;;;;;1.75;1.65;;;;;;;11.76;nan;60727.75;5030885;28;20187;-63
2023/10/10 01:59:13;;;;;;;1.33;1.23;;;;;;;11.69;nan;60733.22;5030968;28;20167;-63
2023/10/10 02:01:39;;;;;;;1.98;1.77;;;;;;;11.86;nan;60710.81;5031206;28;20199;-63
2023/10/10 02:04:07;;;;;;;1.20;1.20;;;;;;;11.68;nan;60796.06;5030511;28;20595;-63
2023/10/10 02:06:34;;;;;;;1.10;1.10;;;;;;;11.79;nan;60711.19;5031044;28;20267;-63
2023/10/10 02:09:11;;;;;;;2.70;2.40;;;;;;;11.56;nan;60677.16;5030885;28;20199;-63
2023/10/10 02:11:38;;;;;;;1.00;1.00;;;;;;;11.52;nan;60793.97;5031055;28;20182;-63
2023/10/10 02:14:11;;;;;;;1.42;1.33;;;;;;;11.46;nan;60764.22;5031073;28;20167;-64
2023/10/10 02:16:40;;;;;;;0.90;0.90;;;;;;;10.95;nan;60724.81;5031174;28;20194;-63
2023/10/10 02:19:15;;;;;;;1.00;1.00;;;;;;;11.40;nan;60785.03;5030843;28;20180;-63
2023/10/10 02:21:48;;;;;;;1.23;1.13;;;;;;;11.40;nan;60667.97;5034352;28;20170;-62
2023/10/10 02:24:41;;;;;;;1.35;1.25;;;;;;;11.41;nan;60663.44;5034344;28;20156;-63
2023/10/10 02:27:06;;;;;;;2.05;1.45;;;;;;;11.44;nan;60810.00;5034146;28;20211;-63
2023/10/10 02:32:08;;;;;;;1.90;1.80;;;;;;;11.34;nan;60681.13;5034035;28;20257;-64
2023/10/10 02:34:43;;;;;;;1.35;1.25;;;;;;;11.51;nan;60815.84;5034404;28;20173;-63
2023/10/10 02:37:55;;;;;;;1.03;1.03;;;;;;;11.44;nan;60794.66;5034124;28;20633;-63
2023/10/10 02:40:05;;;;;;;1.10;0.93;;;;;;;11.46;nan;60641.47;5026149;28;20218;-62
2023/10/10 02:42:33;;;;;;;1.77;1.58;;;;;;;11.44;nan;60695.47;5033980;28;20167;-63
2023/10/10 02:45:02;;;;;;;1.10;1.10;;;;;;;11.46;nan;60663.94;5034252;28;20176;-64
2023/10/10 02:47:30;;;;;;;1.00;1.00;;;;;;;11.40;nan;60687.88;5033971;28;20249;-63
2023/10/10 02:53:07;;;;;;;1.48;1.38;;;;;;;11.55;nan;60720.06;4992003;28;20189;-64
2023/10/10 02:55:41;;;;;;;1.33;1.23;;;;;;;11.39;nan;60769.13;4992064;28;20269;-64
2023/10/10 02:58:20;;;;;;;1.58;1.48;;;;;;;11.49;nan;60703.66;5014339;28;20606;-62
2023/10/10 03:00:49;;;;;;;1.10;1.10;;;;;;;11.63;nan;60710.56;5032302;28;20172;-63
2023/10/10 03:03:21;;;;;;;1.10;1.10;;;;;;;11.52;nan;60865.59;5033647;28;20558;-64
2023/10/10 03:05:58;;;;;;;1.20;1.15;;;;;;;11.66;nan;60790.69;5033599;28;20167;-63
2023/10/10 03:11:01;;;;;;;1.10;1.10;;;;;;;11.87;nan;60965.88;5033385;28;20707;-64
2023/10/10 03:13:36;;;;;;;1.73;1.60;;;;;;;11.82;nan;60834.84;5033827;28;20179;-63
2023/10/10 03:34:56;;;;;;;1.90;1.77;;;;;;;11.57;nan;60859.84;5032997;28;20222;-63
2023/10/10 03:37:40;;;;;;;3.17;2.03;;;;;;;11.68;nan;60841.53;5033289;28;20273;-63
2023/10/10 05:24:08;;;;;;;1.63;1.52;;;;;;;12.57;nan;60812.50;5011312;28;20658;-62
2023/10/10 05:26:34;;;;;;;1.50;1.40;;;;;;;12.65;nan;60780.50;5011489;28;20164;-62
2023/10/10 05:29:00;;;;;;;1.98;1.80;;;;;;;12.76;nan;60836.44;5011138;28;20318;-63
2023/10/10 05:31:30;;;;;;;1.42;1.33;;;;;;;12.80;nan;61051.66;5011475;28;20249;-64
2023/10/10 05:33:56;;;;;;;1.98;1.67;;;;;;;12.72;nan;60762.72;5011479;28;20191;-63
2023/10/10 05:36:24;;;;;;;1.45;1.35;;;;;;;12.97;nan;60880.53;5011319;28;20184;-62
2023/10/10 05:38:50;;;;;;;1.50;1.40;;;;;;;13.01;nan;61002.97;5011451;28;20257;-63
2023/10/10 05:41:18;;;;;;;1.48;1.38;;;;;;;13.00;nan;60860.28;5010765;28;20249;-62
2023/10/10 05:43:49;;;;;;;1.92;1.70;;;;;;;13.20;nan;60957.16;5010443;28;20823;-63
2023/10/10 05:46:15;;;;;;;3.92;3.10;;;;;;;13.39;nan;60883.06;5021232;28;20266;-64
2023/10/10 05:48:41;;;;;;;1.48;1.38;;;;;;;13.14;nan;60996.56;5018166;28;20236;-64
2023/10/10 05:51:09;;;;;;;2.30;1.77;;;;;;;13.30;nan;61142.88;5010276;28;20212;-63
2023/10/10 05:53:34;;;;;;;1.90;1.33;;;;;;;13.28;nan;60887.22;5028149;28;20195;-62
2023/10/10 05:56:12;;;;;;;1.67;1.58;;;;;;;13.55;nan;61080.69;5014128;28;20589;-62
2023/10/10 05:58:40;;;;;;;2.28;2.10;;;;;;;13.71;nan;60967.84;5014288;28;20227;-62
2023/10/10 06:01:07;;;;;;;1.70;1.52;;;;;;;13.80;nan;60985.69;5032074;28;20210;-63
2023/10/10 06:03:34;;;;;;;2.17;1.98;;;;;;;13.82;nan;60928.88;5014070;28;20211;-63
2023/10/10 06:06:03;;;;;;;1.73;1.63;;;;;;;14.21;nan;60966.50;5020442;28;20189;-64
2023/10/10 06:08:31;;;;;;;1.85;1.75;;;;;;;14.29;nan;60919.53;5025213;28;20692;-64
2023/10/10 06:10:57;;;;;;;3.63;2.03;;;;;;;14.47;nan;61112.00;5013096;28;20160;-64
2023/10/10 06:13:23;;;;;;;3.13;2.15;;;;;;;14.75;nan;61022.19;5027265;28;20183;-63
2023/10/10 06:15:50;;;;;;;1.42;1.33;;;;;;;14.87;nan;61305.19;5024097;28;20307;-62
2023/10/10 06:18:17;;;;;;;1.65;1.55;;;;;;;14.99;nan;61023.50;5014742;28;20183;-63
2023/10/10 06:20:45;;;;;;;1.50;1.40;;;;;;;11.56;nan;60762.09;5014492;28;20187;-63
2023/10/10 06:23:15;;;;;;;1.67;1.50;;;;;;;15.37;nan;61235.63;5014478;28;20191;-62
2023/10/10 06:25:41;;;;;;;1.90;1.58;;;;;;;15.62;nan;61083.06;5013672;28;20228;-62
2023/10/10 06:28:18;;;;;;;4.72;2.47;;;;;;;15.70;nan;61251.75;5014702;28;20667;-63
2023/10/10 06:30:44;;;;;;;5.40;2.97;;;;;;;15.96;nan;61146.00;5014897;28;20750;-63
2023/10/10 06:33:14;;;;;;;1.60;1.50;;;;;;;16.00;nan;61184.56;5014531;28;20266;-63
2023/10/10 06:35:39;;;;;;;1.88;1.63;;;;;;;16.13;nan;61225.03;5014586;28;20172;-64
2023/10/10 06:38:12;;;;;;;1.33;1.23;;;;;;;16.25;nan;61305.03;5014473;28;20643;-63
2023/10/10 06:40:49;;;;;;;2.35;1.48;;;;;;;16.38;nan;61458.94;5014810;28;20309;-64
2023/10/10 06:43:18;;;;;;;1.58;1.45;;;;;;;16.49;nan;61337.31;5014339;28;20171;-63
2023/10/10 06:45:48;;;;;;;2.45;1.73;;;;;;;16.86;nan;61316.13;5014687;28;20177;-64
2023/10/10 06:48:15;;;;;;;1.40;1.30;;;;;;;16.84;nan;61329.31;5012751;28;20195;-62
2023/10/10 06:50:40;;;;;;;1.52;1.42;;;;;;;16.83;nan;61235.91;5014868;28;20207;-63
2023/10/10 06:53:06;;;;;;;6.30;3.25;;;;;;;16.94;nan;61314.81;5014371;28;20203;-63
2023/10/10 06:55:36;;;;;;;1.52;1.42;;;;;;;16.78;nan;61475.34;5013961;28;20187;-63
2023/10/10 06:58:02;;;;;;;2.05;1.55;;;;;;;17.03;nan;61284.25;5014287;28;20232;-63
2023/10/10 07:00:53;;;;;;;1.65;1.55;;;;;;;16.97;nan;61442.09;5013969;28;20168;-64
2023/10/10 07:03:30;;;;;;;2.20;1.52;;;;;;;16.67;nan;61215.81;5014346;28;20715;-63
2023/10/10 07:05:56;;;;;;;1.45;1.30;;;;;;;16.56;nan;61339.50;5013913;28;20172;-64
2023/10/10 07:08:27;;;;;;;3.58;1.80;;;;;;;16.35;nan;61192.59;5013786;28;20199;-63
2023/10/10 07:10:55;;;;;;;3.85;2.53;;;;;;;16.12;nan;61158.91;5013639;28;20230;-64
2023/10/10 07:13:29;;;;;;;3.78;2.53;;;;;;;15.95;nan;61310.34;5013571;28;20250;-63
2023/10/10 07:15:58;;;;;;;2.10;1.80;;;;;;;16.15;nan;61144.25;5014158;28;20192;-65
2023/10/10 07:18:23;;;;;;;2.42;2.22;;;;;;;16.33;nan;61183.16;5013779;28;20651;-65
2023/10/10 07:21:17;;;;;;;1.70;1.50;;;;;;;16.78;nan;61245.72;5013785;28;20168;-64
2023/10/10 07:24:02;;;;;;;2.38;1.85;;;;;;;17.25;nan;61303.38;5012265;28;20199;-63
2023/10/10 07:26:40;;;;;;;1.75;1.65;;;;;;;17.49;nan;61329.94;5013917;28;20168;-65
2023/10/10 07:29:25;;;;;;;2.25;1.73;;;;;;;17.79;nan;61317.34;5013717;28;20200;-63
2023/10/10 07:31:53;;;;;;;2.53;1.80;;;;;;;18.12;nan;61540.22;5013593;28;20677;-65
2023/10/10 07:34:34;;;;;;;1.55;1.45;;;;;;;17.98;nan;61287.09;5012312;28;20183;-63
2023/10/10 07:37:07;;;;;;;1.75;1.63;;;;;;;17.47;nan;61333.41;5011870;28;20654;-64
2023/10/10 07:39:33;;;;;;;3.13;2.20;;;;;;;17.38;nan;61271.59;5030247;28;20179;-64
2023/10/10 07:41:59;;;;;;;6.32;2.05;;;;;;;17.38;nan;61317.50;5030532;28;20229;-63
2023/10/10 07:44:25;;;;;;;1.58;1.30;;;;;;;17.79;nan;61557.69;5012747;28;20163;-63
2023/10/10 07:49:35;;;;;;;3.13;2.17;;;;;;;18.55;nan;61572.88;5012803;28;20610;-64
2023/10/10 07:52:02;;;;;;;2.40;1.40;;;;;;;18.89;nan;61510.44;5012690;28;20208;-64
2023/10/10 07:54:38;;;;;;;1.30;1.20;;;;;;;19.28;nan;61525.53;5011183;28;20172;-65
2023/10/10 07:57:07;;;;;;;1.65;1.40;;;;;;;19.43;nan;61443.47;5012184;28;20231;-65
2023/10/10 07:59:36;;;;;;;1.30;1.20;;;;;;;19.68;nan;61504.91;5012659;28;20271;-65
2023/10/10 08:02:19;;;;;;;1.58;1.48;;;;;;;20.41;nan;61563.63;5012498;28;20724;-65
2023/10/10 08:04:49;;;;;;;2.10;1.90;;;;;;;20.94;nan;61680.22;5012963;28;20171;-64
2023/10/10 08:07:19;;;;;;;1.63;1.50;;;;;;;20.78;nan;61708.25;5012609;28;20176;-66
2023/10/10 08:09:46;;;;;;;1.33;1.23;;;;;;;21.25;nan;61751.19;5012738;28;20167;-64
2023/10/10 08:12:13;;;;;;;4.35;1.38;;;;;;;20.99;nan;61906.69;5012621;28;20238;-64
2023/10/10 08:14:39;;;;;;;1.55;1.45;;;;;;;21.42;nan;61718.50;5012451;28;20179;-64
2023/10/10 08:17:18;;;;;;;1.00;1.00;;;;;;;21.32;nan;61761.16;5011884;28;20173;-65
2023/10/10 08:19:53;;;;;;;1.42;1.00;;;;;;;21.08;nan;61701.28;5012337;28;20214;-64
2023/10/10 08:22:25;;;;;;;1.40;1.23;;;;;;;21.28;nan;61702.63;5012248;28;20168;-64
2023/10/10 08:24:51;;;;;;;1.55;1.08;;;;;;;21.81;nan;61829.78;5012237;28;20215;-64
2023/10/10 08:27:17;;;;;;;1.25;1.10;;;;;;;22.05;nan;61793.47;5012320;28;20207;-65
2023/10/10 08:29:42;;;;;;;1.10;1.00;;;;;;;22.05;nan;61827.88;5012269;28;20160;-64
2023/10/10 08:32:08;;;;;;;1.02;1.02;;;;;;;22.06;nan;61816.00;5012171;28;20168;-65
2023/10/10 08:34:38;;;;;;;0.90;0.90;;;;;;;22.37;nan;61968.38;5011769;28;20179;-65
2023/10/10 08:37:04;;;;;;;0.80;0.80;;;;;;;22.55;nan;61975.25;5012309;28;20226;-64
2023/10/10 08:39:35;;;;;;;0.95;0.95;;;;;;;22.75;nan;61817.69;5012051;28;20180;-64
2023/10/10 08:42:14;;;;;;;1.00;0.90;;;;;;;22.76;nan;61889.16;5012289;28;20175;-64
2023/10/10 08:44:40;;;;;;;1.10;1.00;;;;;;;22.98;nan;61879.72;5011784;28;20164;-64
2023/10/10 08:47:19;;;;;;;4.47;1.00;;;;;;;23.34;nan;61944.06;5010912;28;20180;-64
2023/10/10 08:49:47;;;;;;;1.10;1.00;;;;;;;23.54;nan;61987.69;5011910;28;20248;-64
2023/10/10 08:52:16;;;;;;;1.25;1.10;;;;;;;23.49;nan;61984.59;5011913;28;20232;-64
2023/10/10 08:54:44;;;;;;;0.90;0.80;;;;;;;23.41;nan;62063.59;5011526;28;20199;-65
2023/10/10 08:57:12;;;;;;;1.60;1.50;;;;;;;23.33;nan;62178.19;5011431;28;20327;-64
2023/10/10 08:59:42;;;;;;;1.25;1.15;;;;;;;23.78;nan;61998.75;5011407;28;20165;-64
2023/10/10 09:02:07;;;;;;;1.48;1.33;;;;;;;23.35;nan;62023.44;5011367;28;20211;-64
2023/10/10 09:04:33;;;;;;;1.58;1.08;;;;;;;23.67;nan;62005.09;5010923;28;20226;-64
2023/10/10 09:07:08;;;;;;;1.55;1.20;;;;;;;23.82;nan;62013.16;5011171;28;20614;-64
2023/10/10 09:09:40;;;;;;;2.42;1.75;;;;;;;23.83;nan;62027.34;5011849;28;20171;-64
2023/10/10 09:12:14;;;;;;;1.73;0.95;;;;;;;23.66;nan;61966.84;5011208;28;20179;-63
2023/10/10 09:14:39;;;;;;;1.70;1.38;;;;;;;23.75;nan;62087.25;5011569;28;20252;-64
2023/10/10 09:17:07;;;;;;;1.00;0.95;;;;;;;23.99;nan;62074.84;5011380;28;20222;-64
2023/10/10 09:19:37;;;;;;;1.00;1.00;;;;;;;24.40;nan;62115.75;5011319;28;20176;-64
2023/10/10 09:22:12;;;;;;;0.80;0.80;;;;;;;24.47;nan;62147.22;5011982;28;20187;-64
2023/10/10 09:24:40;;;;;;;1.65;0.93;;;;;;;24.41;nan;62216.16;5012032;28;20187;-64
2023/10/10 09:27:21;;;;;;;0.80;0.80;;;;;;;24.34;nan;62119.34;5011394;28;20180;-64
2023/10/10 09:29:54;;;;;;;0.88;0.88;;;;;;;24.46;nan;62252.66;5014578;28;20619;-64
2023/10/10 09:32:27;;;;;;;2.90;0.93;;;;;;;24.87;nan;62171.34;5015578;28;20198;-64
2023/10/10 09:34:54;;;;;;;1.17;1.08;;;;;;;24.78;nan;62170.97;5015165;28;20172;-64
2023/10/10 09:37:29;;;;;;;1.15;0.85;;;;;;;24.74;nan;62114.69;5015523;28;20179;-63
2023/10/10 09:39:56;;;;;;;0.77;0.77;;;;;;;25.03;nan;62189.00;5015528;28;20254;-64
2023/10/10 09:42:44;;;;;;;0.80;0.80;;;;;;;25.10;nan;62298.97;5014927;28;20176;-65
2023/10/10 09:45:26;;;;;;;0.60;0.60;;;;;;;25.15;nan;62286.38;5015073;28;20176;-64
2023/10/10 09:47:57;;;;;;;2.40;1.25;;;;;;;25.21;nan;62248.75;5014027;28;20203;-64
2023/10/10 09:50:35;;;;;;;1.33;0.82;;;;;;;25.27;nan;62228.84;5015071;28;20175;-64
2023/10/10 09:53:02;;;;;;;1.00;0.90;;;;;;;25.15;nan;62241.34;5015079;28;20152;-65
2023/10/10 10:00:50;;;;;;;0.75;0.70;;;;;;;24.97;nan;62227.16;5022133;28;20183;-63
2023/10/10 10:06:00;;;;;;;0.70;0.68;;;;;;;24.33;nan;62133.31;5034780;28;20174;-65
2023/10/10 10:09:16;;;;;;;0.60;0.60;;;;;;;23.92;nan;62100.22;5034229;28;20207;-65
2023/10/10 10:11:56;;;;;;;0.73;0.73;;;;;;;23.98;nan;62141.00;5021827;28;20380;-64
2023/10/10 10:14:25;;;;;;;0.70;0.70;;;;;;;24.09;nan;62072.59;5034128;28;20175;-64
2023/10/10 10:17:18;;;;;;;0.52;0.52;;;;;;;24.42;nan;62123.25;5034311;28;20658;-64
2023/10/10 10:19:45;;;;;;;0.75;0.75;;;;;;;24.64;nan;62164.00;5034582;28;20203;-65
2023/10/10 10:22:17;;;;;;;4.32;1.85;;;;;;;24.68;nan;62151.72;5034123;28;20183;-65
2023/10/10 10:24:44;;;;;;;0.85;0.85;;;;;;;25.04;nan;62265.97;5033940;28;20210;-63
2023/10/10 10:27:24;;;;;;;0.60;0.60;;;;;;;25.05;nan;62282.81;5033255;28;20167;-64
2023/10/10 10:29:54;;;;;;;0.70;0.70;;;;;;;24.89;nan;62186.69;5033865;28;20595;-65
2023/10/10 10:32:23;;;;;;;1.85;1.05;;;;;;;25.27;nan;62234.66;5034062;28;20163;-63
2023/10/10 10:34:55;;;;;;;0.60;0.57;;;;;;;25.53;nan;62290.47;5033966;28;20159;-65
2023/10/10 10:37:23;;;;;;;0.50;0.50;;;;;;;25.42;nan;62288.41;5033785;28;20160;-64
2023/10/10 10:42:50;;;;;;;0.90;0.85;;;;;;;24.61;nan;62157.94;5033864;28;20502;-65
2023/10/10 10:45:36;;;;;;;0.60;0.60;;;;;;;24.84;nan;62264.63;5033433;28;20172;-65
2023/10/10 10:48:07;;;;;;;0.80;0.80;;;;;;;24.30;nan;62093.91;5033395;28;20261;-64
2023/10/10 10:50:42;;;;;;;1.55;0.80;;;;;;;23.86;nan;61996.84;5034077;28;20179;-63
2023/10/10 10:56:51;;;;;;;0.77;0.60;;;;;;;23.66;nan;61985.69;5023857;28;20195;-65
2023/10/10 11:01:21;;;;;;;1.00;0.90;;;;;;;23.27;nan;62074.88;5033527;28;20178;-65
2023/10/10 11:03:51;;;;;;;0.70;0.70;;;;;;;22.93;nan;61918.34;5033241;28;20254;-65
2023/10/10 11:06:20;;;;;;;0.60;0.60;;;;;;;22.94;nan;61961.72;5033844;28;20198;-64
2023/10/10 11:11:36;;;;;;;1.27;0.90;;;;;;;22.85;nan;61959.88;5033405;28;20697;-65
2023/10/10 11:14:10;;;;;;;0.50;0.50;;;;;;;23.03;nan;61935.47;5033288;28;20552;-64
2023/10/10 11:16:45;;;;;;;1.27;1.17;;;;;;;22.82;nan;61930.41;5033282;28;20194;-65
2023/10/10 11:19:24;;;;;;;0.70;0.70;;;;;;;22.97;nan;62079.25;5032939;28;20163;-64
2023/10/10 11:22:00;;;;;;;0.70;0.70;;;;;;;22.98;nan;61992.34;5033250;28;20171;-64
2023/10/10 11:24:30;;;;;;;0.82;0.82;;;;;;;22.97;nan;61948.94;5033285;28;20178;-64
2023/10/10 11:27:14;;;;;;;1.45;1.08;;;;;;;22.90;nan;62002.06;5032515;28;20159;-65
2023/10/10 11:29:45;;;;;;;1.13;0.90;;;;;;;22.83;nan;62012.34;5032837;28;20159;-65
2023/10/10 11:32:29;;;;;;;0.70;0.70;;;;;;;22.74;nan;61934.34;5032836;28;20155;-65
2023/10/10 11:34:56;;;;;;;1.48;1.05;;;;;;;22.70;nan;61890.16;5032632;28;20194;-65
2023/10/10 11:37:32;;;;;;;0.75;0.75;;;;;;;22.77;nan;61913.75;5032460;28;20182;-65
2023/10/10 11:40:30;;;;;;;1.38;0.85;;;;;;;23.05;nan;62104.00;5032028;28;20175;-64
2023/10/10 11:43:17;;;;;;;0.80;0.80;;;;;;;23.15;nan;62095.13;5032540;28;20247;-65
2023/10/10 11:45:51;;;;;;;0.80;0.80;;;;;;;23.03;nan;62097.06;5032611;28;20267;-64
2023/10/10 11:48:17;;;;;;;1.05;0.90;;;;;;;23.31;nan;61966.72;5032265;28;20218;-63
2023/10/10 11:50:43;;;;;;;1.50;1.40;;;;;;;23.41;nan;62087.63;5032619;28;20252;-65
2023/10/10 11:53:12;;;;;;;1.20;1.00;;;;;;;23.31;nan;62037.69;5030002;28;20190;-64
2023/10/10 11:55:40;;;;;;;0.85;0.85;;;;;;;23.37;nan;62023.09;5032472;28;20171;-65
2023/10/10 11:58:16;;;;;;;2.03;1.23;;;;;;;23.47;nan;62235.34;5031972;28;20223;-65
2023/10/10 12:00:42;;;;;;;0.90;0.85;;;;;;;23.23;nan;62103.66;5032129;28;20213;-63
2023/10/10 12:03:12;;;;;;;1.35;1.25;;;;;;;23.23;nan;62017.59;5032202;28;20175;-65
2023/10/10 12:05:47;;;;;;;1.08;0.80;;;;;;;23.06;nan;62071.81;5030572;28;20175;-64
2023/10/10 12:08:15;;;;;;;1.00;1.00;;;;;;;23.15;nan;61923.03;5031895;28;20190;-65
2023/10/10 12:13:19;;;;;;;2.22;1.45;;;;;;;;;;5067426;28;20634;-64
2023/10/10 12:15:46;;;;;;;0.85;0.85;;;;;;;23.17;nan;62138.53;5068661;28;20536;-63
2023/10/10 12:18:11;;;;;;;0.80;0.80;;;;;;;23.24;nan;62005.72;5068736;28;20221;-64
2023/10/10 12:20:46;;;;;;;1.88;1.40;;;;;;;23.37;nan;62095.56;5068822;28;20209;-63
2023/10/10 12:23:12;;;;;;;0.80;0.80;;;;;;;23.34;nan;62150.09;5068387;28;20161;-64
2023/10/10 12:25:43;;;;;;;0.70;0.70;;;;;;;22.89;nan;62055.06;5068304;28;20257;-65
2023/10/10 12:28:09;;;;;;;0.75;0.75;;;;;;;22.79;nan;62010.41;5068371;28;20238;-64
2023/10/10 12:30:42;;;;;;;1.05;0.80;;;;;;;23.04;nan;62248.84;5068396;28;20585;-65
2023/10/10 12:33:08;;;;;;;1.02;0.82;;;;;;;23.22;nan;61998.22;5068268;28;20193;-64
2023/10/10 12:35:35;;;;;;;0.80;0.80;;;;;;;23.17;nan;62092.16;5068514;28;20596;-65
2023/10/10 12:38:04;;;;;;;9.95;1.80;;;;;;;23.42;nan;62098.63;5068287;28;20187;-65
2023/10/10 12:40:33;;;;;;;0.95;0.73;;;;;;;21.38;nan;63510.63;5066598;28;20185;-65
2023/10/10 12:42:59;;;;;;;0.68;0.68;;;;;;;23.11;nan;62027.41;5068219;28;20265;-65
2023/10/10 12:45:25;;;;;;;0.80;0.80;;;;;;;23.37;nan;61981.38;5068058;28;20243;-64
2023/10/10 12:47:50;;;;;;;1.33;1.23;;;;;;;23.35;nan;62003.13;5068049;28;20162;-64
2023/10/10 12:50:16;;;;;;;0.80;0.73;;;;;;;23.47;nan;61992.78;5068238;28;20166;-64
2023/10/10 12:52:57;;;;;;;0.60;0.60;;;;;;;23.54;nan;62029.41;5068059;28;20288;-64
2023/10/10 12:55:25;;;;;;;0.50;0.50;;;;;;;23.30;nan;61981.25;5067861;28;20181;-65
2023/10/10 12:57:54;;;;;;;1.00;0.60;;;;;;;23.33;nan;61992.47;5067845;28;20175;-64
2023/10/10 13:00:33;;;;;;;0.60;0.60;;;;;;;23.07;nan;61884.72;5067973;28;20182;-65
2023/10/10 13:02:58;;;;;;;0.60;0.60;;;;;;;23.11;nan;61957.03;5067894;28;20158;-65
2023/10/10 13:05:27;;;;;;;0.70;0.70;;;;;;;22.81;nan;61929.28;5067718;28;20235;-64
2023/10/10 13:07:55;;;;;;;0.60;0.60;;;;;;;22.95;nan;61931.59;5067628;28;20626;-64
2023/10/10 13:10:27;;;;;;;0.50;0.50;;;;;;;22.82;nan;61872.53;5067601;28;20649;-70
2023/10/10 13:12:53;;;;;;;0.60;0.57;;;;;;;22.92;nan;61914.59;5067578;28;20692;-65
2023/10/10 13:15:19;;;;;;;0.50;0.50;;;;;;;23.03;nan;62041.78;5067197;28;20304;-65
2023/10/10 13:17:52;;;;;;;0.70;0.65;;;;;;;22.63;nan;61848.91;5067338;28;20232;-63
2023/10/10 13:20:21;;;;;;;0.65;0.65;;;;;;;22.54;nan;61890.75;5067204;28;20540;-63
2023/10/10 13:22:53;;;;;;;0.57;0.57;;;;;;;22.59;nan;62021.47;5063818;28;20561;-65
2023/10/10 13:25:20;;;;;;;0.75;0.75;;;;;;;22.28;nan;61871.66;5054323;28;20178;-66
2023/10/10 13:27:46;;;;;;;0.80;0.80;;;;;;;21.76;nan;61725.28;5054113;28;20283;-65
2023/10/10 13:30:12;;;;;;;0.70;0.70;;;;;;;21.73;nan;61762.94;5053826;28;20177;-65
2023/10/10 13:32:38;;;;;;;0.70;0.70;;;;;;;21.79;nan;61806.72;5053969;28;20230;-67
2023/10/10 13:35:05;;;;;;;0.82;0.82;;;;;;;21.98;nan;61942.78;5053857;28;20252;-65
2023/10/10 13:37:31;;;;;;;0.95;0.93;;;;;;;22.00;nan;61861.81;5053730;28;20629;-65
2023/10/10 13:39:57;;;;;;;0.85;0.85;;;;;;;22.15;nan;61856.88;5053828;28;20179;-65
2023/10/10 13:42:22;;;;;;;0.90;0.80;;;;;;;22.20;nan;61860.50;5053400;28;20637;-66
2023/10/10 13:44:48;;;;;;;1.15;1.08;;;;;;;22.11;nan;61873.16;5051801;28;20551;-67
2023/10/10 13:47:16;;;;;;;1.00;0.90;;;;;;;22.20;nan;61966.66;5050173;28;20614;-64
2023/10/10 13:49:44;;;;;;;0.90;0.85;;;;;;;22.45;nan;61940.44;5051738;28;20186;-63
2023/10/10 13:52:16;;;;;;;0.82;0.82;;;;;;;22.55;nan;61930.97;5051591;28;20735;-66
2023/10/10 13:54:41;;;;;;;2.05;1.23;;;;;;;22.54;nan;62005.38;5051706;28;20193;-64
2023/10/10 13:57:07;;;;;;;1.00;0.90;;;;;;;22.53;nan;61917.69;5051513;28;20638;-64
2023/10/10 13:59:33;;;;;;;1.10;1.00;;;;;;;22.71;nan;61888.69;5053002;28;20577;-64
2023/10/10 14:02:03;;;;;;;0.52;0.52;;;;;;;22.70;nan;61913.63;5053499;28;20181;-65
2023/10/10 14:04:38;;;;;;;3.58;1.55;;;;;;;22.51;nan;61871.16;5054370;28;20170;-64
2023/10/10 14:07:05;;;;;;;1.10;1.08;;;;;;;22.38;nan;62008.00;5053685;28;20166;-63
2023/10/10 14:09:31;;;;;;;1.05;0.82;;;;;;;22.36;nan;61876.09;5053536;28;20171;-63
2023/10/10 14:12:02;;;;;;;1.95;1.40;;;;;;;22.50;nan;61987.22;5053468;28;20232;-64
2023/10/10 14:14:28;;;;;;;0.98;0.90;;;;;;;19.66;nan;63423.91;5053649;28;20250;-65
2023/10/10 14:16:53;;;;;;;0.95;0.85;;;;;;;22.48;nan;61868.88;5052173;28;20288;-64
2023/10/10 14:19:23;;;;;;;0.75;0.75;;;;;;;22.35;nan;61966.09;5053221;28;20714;-64
2023/10/10 14:21:52;;;;;;;0.93;0.90;;;;;;;22.34;nan;61870.66;5053429;28;20171;-65
2023/10/10 14:24:18;;;;;;;0.82;0.68;;;;;;;22.37;nan;62027.69;5053112;28;20212;-63
2023/10/10 14:26:44;;;;;;;0.70;0.70;;;;;;;22.39;nan;61884.13;5052725;28;20254;-64
2023/10/10 14:29:13;;;;;;;0.95;0.95;;;;;;;22.17;nan;62002.31;5053074;28;20236;-64
2023/10/10 14:31:44;;;;;;;0.77;0.73;;;;;;;22.25;nan;61870.84;5053205;28;20201;-66
2023/10/10 14:34:24;;;;;;;1.20;1.10;;;;;;;21.98;nan;61780.91;5034202;28;20175;-64
2023/10/10 14:36:51;;;;;;;0.90;0.90;;;;;;;21.88;nan;62051.06;5032111;28;20596;-64
2023/10/10 14:39:31;;;;;;;0.88;0.88;;;;;;;21.83;nan;61802.88;5032784;28;20183;-64
2023/10/10 14:41:58;;;;;;;0.88;0.77;;;;;;;21.80;nan;61924.34;5032997;28;20229;-64
2023/10/10 14:44:28;;;;;;;1.30;0.90;;;;;;;21.74;nan;61940.91;5032816;28;20183;-65